Terminal Aerodrome Forecast
Issued by NWS Omaha/Valley, NE

Home | Current Version | Previous Version | Text Only | Print | Product List | Glossary On
Versions: 1 2 3 4 5 6 7 8 9 10 11 12 13 14 15 16 17 18 19 20 21 22 23 24 25 26
000
FTUS43 KOAX 290421 AAA
TAFLNK
TAF AMD
KLNK 290421Z 2904/2924 33024G30KT P6SM SCT025 BKN250
     FM290600 33027G35KT P6SM OVC025
     FM290900 33026G34KT P6SM OVC015
     FM291500 33023G30KT P6SM SCT250=

USA.gov is the U.S. government's official web portal to all federal, state and local government web resources and services.